sensor_id;sensor_type;location;lat;lon;timestamp;temperature;humidity
22194;DHT22;11262;50.308;9.270;2023-01-09T00:00:35;7.30;99.90
22194;DHT22;11262;50.308;9.270;2023-01-09T00:03:00;7.30;99.90
22194;DHT22;11262;50.308;9.270;2023-01-09T00:05:26;7.20;99.90
22194;DHT22;11262;50.308;9.270;2023-01-09T00:07:51;7.20;99.90
22194;DHT22;11262;50.308;9.270;2023-01-09T00:10:17;7.20;99.90
22194;DHT22;11262;50.308;9.270;2023-01-09T00:12:43;7.10;99.90
22194;DHT22;11262;50.308;9.270;2023-01-09T00:15:09;7.10;99.90
22194;DHT22;11262;50.308;9.270;2023-01-09T00:17:34;7.10;99.90
22194;DHT22;11262;50.308;9.270;2023-01-09T00:20:00;7.10;99.90
22194;DHT22;11262;50.308;9.270;2023-01-09T00:22:25;7.10;99.90
22194;DHT22;11262;50.308;9.270;2023-01-09T00:24:51;7.10;99.90
22194;DHT22;11262;50.308;9.270;2023-01-09T00:27:17;7.10;99.90
22194;DHT22;11262;50.308;9.270;2023-01-09T00:29:42;7.10;99.90
22194;DHT22;11262;50.308;9.270;2023-01-09T00:32:10;7.10;99.90
22194;DHT22;11262;50.308;9.270;2023-01-09T00:34:39;7.10;99.90
22194;DHT22;11262;50.308;9.270;2023-01-09T00:37:05;7.10;99.90
22194;DHT22;11262;50.308;9.270;2023-01-09T00:39:37;7.10;99.90
22194;DHT22;11262;50.308;9.270;2023-01-09T00:42:04;7.10;99.90
22194;DHT22;11262;50.308;9.270;2023-01-09T00:44:37;7.10;99.90
22194;DHT22;11262;50.308;9.270;2023-01-09T00:47:12;7.10;99.90
22194;DHT22;11262;50.308;9.270;2023-01-09T00:49:39;7.10;99.90
22194;DHT22;11262;50.308;9.270;2023-01-09T00:52:09;7.10;99.90
22194;DHT22;11262;50.308;9.270;2023-01-09T00:54:35;7.10;99.90
22194;DHT22;11262;50.308;9.270;2023-01-09T00:57:01;7.10;99.90
22194;DHT22;11262;50.308;9.270;2023-01-09T00:59:27;7.10;99.90
22194;DHT22;11262;50.308;9.270;2023-01-09T01:01:53;7.10;99.90
22194;DHT22;11262;50.308;9.270;2023-01-09T01:04:18;7.10;99.90
22194;DHT22;11262;50.308;9.270;2023-01-09T01:07:03;7.10;99.90
22194;DHT22;11262;50.308;9.270;2023-01-09T01:09:47;7.10;99.90
22194;DHT22;11262;50.308;9.270;2023-01-09T01:12:13;7.10;99.90
22194;DHT22;11262;50.308;9.270;2023-01-09T01:14:38;7.10;99.90
22194;DHT22;11262;50.308;9.270;2023-01-09T01:17:04;7.10;99.90
22194;DHT22;11262;50.308;9.270;2023-01-09T01:19:31;7.20;99.90
22194;DHT22;11262;50.308;9.270;2023-01-09T01:21:57;7.20;99.90
22194;DHT22;11262;50.308;9.270;2023-01-09T01:24:22;7.20;99.90
22194;DHT22;11262;50.308;9.270;2023-01-09T01:26:48;7.20;99.90
22194;DHT22;11262;50.308;9.270;2023-01-09T01:29:14;7.20;99.90
22194;DHT22;11262;50.308;9.270;2023-01-09T01:31:39;7.20;99.90
22194;DHT22;11262;50.308;9.270;2023-01-09T01:34:05;7.20;99.90
22194;DHT22;11262;50.308;9.270;2023-01-09T01:36:30;7.20;99.90
22194;DHT22;11262;50.308;9.270;2023-01-09T01:38:57;7.20;99.90
22194;DHT22;11262;50.308;9.270;2023-01-09T01:41:22;7.20;99.90
22194;DHT22;11262;50.308;9.270;2023-01-09T01:44:05;7.30;99.90
22194;DHT22;11262;50.308;9.270;2023-01-09T01:46:32;7.20;99.90
22194;DHT22;11262;50.308;9.270;2023-01-09T01:49:11;7.30;99.90
22194;DHT22;11262;50.308;9.270;2023-01-09T01:51:41;7.30;99.90
22194;DHT22;11262;50.308;9.270;2023-01-09T01:54:11;7.30;99.90
22194;DHT22;11262;50.308;9.270;2023-01-09T01:56:44;7.30;99.90
22194;DHT22;11262;50.308;9.270;2023-01-09T01:59:17;7.30;99.90
22194;DHT22;11262;50.308;9.270;2023-01-09T02:01:55;7.30;99.90
22194;DHT22;11262;50.308;9.270;2023-01-09T02:04:22;7.30;99.90
22194;DHT22;11262;50.308;9.270;2023-01-09T02:06:51;7.30;99.90
22194;DHT22;11262;50.308;9.270;2023-01-09T02:09:18;7.30;99.90
22194;DHT22;11262;50.308;9.270;2023-01-09T02:11:49;7.30;99.90
22194;DHT22;11262;50.308;9.270;2023-01-09T02:14:18;7.30;99.90
22194;DHT22;11262;50.308;9.270;2023-01-09T02:17:17;7.40;99.90
22194;DHT22;11262;50.308;9.270;2023-01-09T02:22:44;7.40;99.90
22194;DHT22;11262;50.308;9.270;2023-01-09T02:33:49;7.40;99.90
22194;DHT22;11262;50.308;9.270;2023-01-09T02:39:26;7.40;99.90
22194;DHT22;11262;50.308;9.270;2023-01-09T02:42:10;7.40;99.90
22194;DHT22;11262;50.308;9.270;2023-01-09T02:44:38;7.40;99.90
22194;DHT22;11262;50.308;9.270;2023-01-09T02:49:55;7.50;99.90
22194;DHT22;11262;50.308;9.270;2023-01-09T03:00:42;7.40;99.90
22194;DHT22;11262;50.308;9.270;2023-01-09T03:08:41;7.30;99.90
22194;DHT22;11262;50.308;9.270;2023-01-09T03:11:08;7.30;99.90
22194;DHT22;11262;50.308;9.270;2023-01-09T03:13:44;7.20;99.90
22194;DHT22;11262;50.308;9.270;2023-01-09T03:16:13;7.20;99.90
22194;DHT22;11262;50.308;9.270;2023-01-09T03:18:41;7.20;99.90
22194;DHT22;11262;50.308;9.270;2023-01-09T03:21:08;7.20;99.90
22194;DHT22;11262;50.308;9.270;2023-01-09T03:23:54;7.10;99.90
22194;DHT22;11262;50.308;9.270;2023-01-09T03:26:19;7.10;99.90
22194;DHT22;11262;50.308;9.270;2023-01-09T03:28:46;7.10;99.90
22194;DHT22;11262;50.308;9.270;2023-01-09T03:31:12;7.00;99.90
22194;DHT22;11262;50.308;9.270;2023-01-09T03:33:38;7.00;99.90
22194;DHT22;11262;50.308;9.270;2023-01-09T03:36:04;7.00;99.90
22194;DHT22;11262;50.308;9.270;2023-01-09T03:38:29;7.00;99.90
22194;DHT22;11262;50.308;9.270;2023-01-09T03:40:55;7.00;99.90
22194;DHT22;11262;50.308;9.270;2023-01-09T03:43:21;7.00;99.90
22194;DHT22;11262;50.308;9.270;2023-01-09T03:45:46;6.90;99.90
22194;DHT22;11262;50.308;9.270;2023-01-09T03:48:12;6.90;99.90
22194;DHT22;11262;50.308;9.270;2023-01-09T03:50:37;6.90;99.90
22194;DHT22;11262;50.308;9.270;2023-01-09T03:53:03;6.90;99.90
22194;DHT22;11262;50.308;9.270;2023-01-09T03:55:29;6.90;99.90
22194;DHT22;11262;50.308;9.270;2023-01-09T03:57:54;6.90;99.90
22194;DHT22;11262;50.308;9.270;2023-01-09T04:00:20;6.90;99.90
22194;DHT22;11262;50.308;9.270;2023-01-09T04:02:47;6.80;99.90
22194;DHT22;11262;50.308;9.270;2023-01-09T04:05:13;6.80;99.90
22194;DHT22;11262;50.308;9.270;2023-01-09T04:07:38;6.80;99.90
22194;DHT22;11262;50.308;9.270;2023-01-09T04:10:05;6.80;99.90
22194;DHT22;11262;50.308;9.270;2023-01-09T04:12:30;6.80;99.90
22194;DHT22;11262;50.308;9.270;2023-01-09T04:14:56;6.70;99.90
22194;DHT22;11262;50.308;9.270;2023-01-09T04:17:21;6.70;99.90
22194;DHT22;11262;50.308;9.270;2023-01-09T04:19:47;6.70;99.90
22194;DHT22;11262;50.308;9.270;2023-01-09T04:22:13;6.70;99.90
22194;DHT22;11262;50.308;9.270;2023-01-09T04:24:39;6.70;99.90
22194;DHT22;11262;50.308;9.270;2023-01-09T04:27:05;6.70;99.90
22194;DHT22;11262;50.308;9.270;2023-01-09T04:29:30;6.60;99.90
22194;DHT22;11262;50.308;9.270;2023-01-09T04:31:56;6.70;99.90
22194;DHT22;11262;50.308;9.270;2023-01-09T04:34:21;6.60;99.90
22194;DHT22;11262;50.308;9.270;2023-01-09T04:36:50;6.60;99.90
22194;DHT22;11262;50.308;9.270;2023-01-09T04:39:16;6.60;99.90
22194;DHT22;11262;50.308;9.270;2023-01-09T04:41:42;6.60;99.90
22194;DHT22;11262;50.308;9.270;2023-01-09T04:44:17;6.60;99.90
22194;DHT22;11262;50.308;9.270;2023-01-09T04:46:43;6.60;99.90
22194;DHT22;11262;50.308;9.270;2023-01-09T04:49:09;6.60;99.90
22194;DHT22;11262;50.308;9.270;2023-01-09T04:51:35;6.60;99.90
22194;DHT22;11262;50.308;9.270;2023-01-09T04:54:00;6.60;99.90
22194;DHT22;11262;50.308;9.270;2023-01-09T04:56:26;6.50;99.90
22194;DHT22;11262;50.308;9.270;2023-01-09T04:58:52;6.50;99.90
22194;DHT22;11262;50.308;9.270;2023-01-09T05:01:17;6.50;99.90
22194;DHT22;11262;50.308;9.270;2023-01-09T05:03:43;6.50;99.90
22194;DHT22;11262;50.308;9.270;2023-01-09T05:06:09;6.50;99.90
22194;DHT22;11262;50.308;9.270;2023-01-09T05:08:34;6.50;99.90
22194;DHT22;11262;50.308;9.270;2023-01-09T05:11:00;6.50;99.90
22194;DHT22;11262;50.308;9.270;2023-01-09T05:13:25;6.40;99.90
22194;DHT22;11262;50.308;9.270;2023-01-09T05:15:51;6.40;99.90
22194;DHT22;11262;50.308;9.270;2023-01-09T05:18:16;6.40;99.90
22194;DHT22;11262;50.308;9.270;2023-01-09T05:20:42;6.40;99.90
22194;DHT22;11262;50.308;9.270;2023-01-09T05:23:08;6.40;99.90
22194;DHT22;11262;50.308;9.270;2023-01-09T05:25:33;6.40;99.90
22194;DHT22;11262;50.308;9.270;2023-01-09T05:27:59;6.30;99.90
22194;DHT22;11262;50.308;9.270;2023-01-09T05:30:26;6.30;99.90
22194;DHT22;11262;50.308;9.270;2023-01-09T05:32:51;6.30;99.90
22194;DHT22;11262;50.308;9.270;2023-01-09T05:35:17;6.30;99.90
22194;DHT22;11262;50.308;9.270;2023-01-09T05:37:43;6.30;99.90
22194;DHT22;11262;50.308;9.270;2023-01-09T05:40:09;6.30;99.90
22194;DHT22;11262;50.308;9.270;2023-01-09T05:42:35;6.30;99.90
22194;DHT22;11262;50.308;9.270;2023-01-09T05:45:00;6.20;99.90
22194;DHT22;11262;50.308;9.270;2023-01-09T05:47:26;6.20;99.90
22194;DHT22;11262;50.308;9.270;2023-01-09T05:49:52;6.20;99.90
22194;DHT22;11262;50.308;9.270;2023-01-09T05:52:20;6.20;99.90
22194;DHT22;11262;50.308;9.270;2023-01-09T05:54:46;6.20;99.90
22194;DHT22;11262;50.308;9.270;2023-01-09T05:57:12;6.10;99.90
22194;DHT22;11262;50.308;9.270;2023-01-09T05:59:37;6.10;99.90
22194;DHT22;11262;50.308;9.270;2023-01-09T06:02:03;6.10;99.90
22194;DHT22;11262;50.308;9.270;2023-01-09T06:04:28;6.00;99.90
22194;DHT22;11262;50.308;9.270;2023-01-09T06:06:55;6.10;99.90
22194;DHT22;11262;50.308;9.270;2023-01-09T06:09:20;6.10;99.90
22194;DHT22;11262;50.308;9.270;2023-01-09T06:11:46;6.00;99.90
22194;DHT22;11262;50.308;9.270;2023-01-09T06:14:11;6.00;99.90
22194;DHT22;11262;50.308;9.270;2023-01-09T06:16:37;6.00;99.90
22194;DHT22;11262;50.308;9.270;2023-01-09T06:19:03;6.00;99.90
22194;DHT22;11262;50.308;9.270;2023-01-09T06:21:30;5.90;99.90
22194;DHT22;11262;50.308;9.270;2023-01-09T06:23:56;5.90;99.90
22194;DHT22;11262;50.308;9.270;2023-01-09T06:26:22;5.90;99.90
22194;DHT22;11262;50.308;9.270;2023-01-09T06:28:48;5.90;99.90
22194;DHT22;11262;50.308;9.270;2023-01-09T06:31:14;5.90;99.90
22194;DHT22;11262;50.308;9.270;2023-01-09T06:33:39;5.90;99.90
22194;DHT22;11262;50.308;9.270;2023-01-09T06:36:05;5.80;99.90
22194;DHT22;11262;50.308;9.270;2023-01-09T06:38:31;5.80;99.90
22194;DHT22;11262;50.308;9.270;2023-01-09T06:40:56;5.80;99.90
22194;DHT22;11262;50.308;9.270;2023-01-09T06:43:22;5.80;99.90
22194;DHT22;11262;50.308;9.270;2023-01-09T06:45:47;5.80;99.90
22194;DHT22;11262;50.308;9.270;2023-01-09T06:48:13;5.80;99.90
22194;DHT22;11262;50.308;9.270;2023-01-09T06:50:39;5.80;99.90
22194;DHT22;11262;50.308;9.270;2023-01-09T06:53:04;5.80;99.90
22194;DHT22;11262;50.308;9.270;2023-01-09T06:55:30;5.80;99.90
22194;DHT22;11262;50.308;9.270;2023-01-09T06:57:56;5.80;99.90
22194;DHT22;11262;50.308;9.270;2023-01-09T07:00:21;5.80;99.90
22194;DHT22;11262;50.308;9.270;2023-01-09T07:02:47;5.80;99.90
22194;DHT22;11262;50.308;9.270;2023-01-09T07:05:13;5.80;99.90
22194;DHT22;11262;50.308;9.270;2023-01-09T07:07:39;5.80;99.90
22194;DHT22;11262;50.308;9.270;2023-01-09T07:10:05;5.70;99.90
22194;DHT22;11262;50.308;9.270;2023-01-09T07:12:31;5.70;99.90
22194;DHT22;11262;50.308;9.270;2023-01-09T07:14:57;5.70;99.90
22194;DHT22;11262;50.308;9.270;2023-01-09T07:17:22;5.60;99.90
22194;DHT22;11262;50.308;9.270;2023-01-09T07:19:48;5.60;99.90
22194;DHT22;11262;50.308;9.270;2023-01-09T07:22:14;5.60;99.90
22194;DHT22;11262;50.308;9.270;2023-01-09T07:24:39;5.60;99.90
22194;DHT22;11262;50.308;9.270;2023-01-09T07:27:05;5.60;99.90
22194;DHT22;11262;50.308;9.270;2023-01-09T07:29:30;5.60;99.90
22194;DHT22;11262;50.308;9.270;2023-01-09T07:31:56;5.60;99.90
22194;DHT22;11262;50.308;9.270;2023-01-09T07:34:22;5.60;99.90
22194;DHT22;11262;50.308;9.270;2023-01-09T07:36:47;5.70;99.90
22194;DHT22;11262;50.308;9.270;2023-01-09T07:39:15;5.60;99.90
22194;DHT22;11262;50.308;9.270;2023-01-09T07:41:41;5.60;99.90
22194;DHT22;11262;50.308;9.270;2023-01-09T07:44:06;5.70;99.90
22194;DHT22;11262;50.308;9.270;2023-01-09T07:46:32;5.70;99.90
22194;DHT22;11262;50.308;9.270;2023-01-09T07:48:58;5.70;99.90
22194;DHT22;11262;50.308;9.270;2023-01-09T07:51:24;5.70;99.90
22194;DHT22;11262;50.308;9.270;2023-01-09T07:53:49;5.70;99.90
22194;DHT22;11262;50.308;9.270;2023-01-09T07:56:15;5.60;99.90
22194;DHT22;11262;50.308;9.270;2023-01-09T07:58:40;5.70;99.90
22194;DHT22;11262;50.308;9.270;2023-01-09T08:01:06;5.70;99.90
22194;DHT22;11262;50.308;9.270;2023-01-09T08:03:32;5.70;99.90
22194;DHT22;11262;50.308;9.270;2023-01-09T08:06:00;5.70;99.90
22194;DHT22;11262;50.308;9.270;2023-01-09T08:08:26;5.70;99.90
22194;DHT22;11262;50.308;9.270;2023-01-09T08:10:52;5.70;99.90
22194;DHT22;11262;50.308;9.270;2023-01-09T08:13:18;5.70;99.90
22194;DHT22;11262;50.308;9.270;2023-01-09T08:15:43;5.70;99.90
22194;DHT22;11262;50.308;9.270;2023-01-09T08:18:09;5.70;99.90
22194;DHT22;11262;50.308;9.270;2023-01-09T08:20:34;5.70;99.90
22194;DHT22;11262;50.308;9.270;2023-01-09T08:23:00;5.70;99.90
22194;DHT22;11262;50.308;9.270;2023-01-09T08:25:25;5.70;99.90
22194;DHT22;11262;50.308;9.270;2023-01-09T08:27:51;5.70;99.90
22194;DHT22;11262;50.308;9.270;2023-01-09T08:30:17;5.70;99.90
22194;DHT22;11262;50.308;9.270;2023-01-09T08:32:43;5.70;99.90
22194;DHT22;11262;50.308;9.270;2023-01-09T08:35:12;5.70;99.90
22194;DHT22;11262;50.308;9.270;2023-01-09T08:37:38;5.70;99.90
22194;DHT22;11262;50.308;9.270;2023-01-09T08:40:04;5.70;99.90
22194;DHT22;11262;50.308;9.270;2023-01-09T08:42:32;5.70;99.90
22194;DHT22;11262;50.308;9.270;2023-01-09T08:45:16;5.70;99.90
22194;DHT22;11262;50.308;9.270;2023-01-09T08:48:01;5.70;99.90
22194;DHT22;11262;50.308;9.270;2023-01-09T08:50:26;5.60;99.90
22194;DHT22;11262;50.308;9.270;2023-01-09T08:52:52;5.60;99.90
22194;DHT22;11262;50.308;9.270;2023-01-09T08:55:17;5.60;99.90
22194;DHT22;11262;50.308;9.270;2023-01-09T08:57:47;5.60;99.90
22194;DHT22;11262;50.308;9.270;2023-01-09T09:00:15;5.60;99.90
22194;DHT22;11262;50.308;9.270;2023-01-09T09:02:40;5.60;99.90
22194;DHT22;11262;50.308;9.270;2023-01-09T09:05:06;5.60;99.90
22194;DHT22;11262;50.308;9.270;2023-01-09T09:07:32;5.60;99.90
22194;DHT22;11262;50.308;9.270;2023-01-09T09:09:57;5.60;99.90
22194;DHT22;11262;50.308;9.270;2023-01-09T09:12:23;5.60;99.90
22194;DHT22;11262;50.308;9.270;2023-01-09T09:14:48;5.60;99.90
22194;DHT22;11262;50.308;9.270;2023-01-09T09:17:33;5.60;99.90
22194;DHT22;11262;50.308;9.270;2023-01-09T09:19:59;5.70;99.90
22194;DHT22;11262;50.308;9.270;2023-01-09T09:22:25;5.60;99.90
22194;DHT22;11262;50.308;9.270;2023-01-09T09:24:51;5.70;99.90
22194;DHT22;11262;50.308;9.270;2023-01-09T09:27:17;5.70;99.90
22194;DHT22;11262;50.308;9.270;2023-01-09T09:29:42;5.70;99.90
22194;DHT22;11262;50.308;9.270;2023-01-09T09:32:08;5.70;99.90
22194;DHT22;11262;50.308;9.270;2023-01-09T09:34:34;5.70;99.90
22194;DHT22;11262;50.308;9.270;2023-01-09T09:36:59;5.70;99.90
22194;DHT22;11262;50.308;9.270;2023-01-09T09:39:25;5.70;99.90
22194;DHT22;11262;50.308;9.270;2023-01-09T09:50:46;5.80;99.90
22194;DHT22;11262;50.308;9.270;2023-01-09T09:56:06;5.90;99.90
22194;DHT22;11262;50.308;9.270;2023-01-09T09:58:45;5.90;99.90
22194;DHT22;11262;50.308;9.270;2023-01-09T10:01:17;5.90;99.90
22194;DHT22;11262;50.308;9.270;2023-01-09T10:03:50;5.90;99.90
22194;DHT22;11262;50.308;9.270;2023-01-09T10:06:31;6.00;99.90
22194;DHT22;11262;50.308;9.270;2023-01-09T10:12:31;6.00;99.90
22194;DHT22;11262;50.308;9.270;2023-01-09T10:15:00;6.00;99.90
22194;DHT22;11262;50.308;9.270;2023-01-09T10:17:51;6.00;99.90
22194;DHT22;11262;50.308;9.270;2023-01-09T10:39:15;6.10;99.90
22194;DHT22;11262;50.308;9.270;2023-01-09T10:44:35;6.10;99.90
22194;DHT22;11262;50.308;9.270;2023-01-09T10:47:33;6.00;99.90
22194;DHT22;11262;50.308;9.270;2023-01-09T10:50:08;6.00;99.90
22194;DHT22;11262;50.308;9.270;2023-01-09T10:52:40;6.10;99.90
22194;DHT22;11262;50.308;9.270;2023-01-09T10:55:18;6.10;99.90
22194;DHT22;11262;50.308;9.270;2023-01-09T10:57:46;6.10;99.90
22194;DHT22;11262;50.308;9.270;2023-01-09T11:00:22;6.10;99.90
22194;DHT22;11262;50.308;9.270;2023-01-09T11:02:48;6.20;99.90
22194;DHT22;11262;50.308;9.270;2023-01-09T11:05:26;6.20;99.90
22194;DHT22;11262;50.308;9.270;2023-01-09T11:08:13;6.20;99.90
22194;DHT22;11262;50.308;9.270;2023-01-09T11:10:53;6.20;99.90
22194;DHT22;11262;50.308;9.270;2023-01-09T11:13:20;6.30;99.90
22194;DHT22;11262;50.308;9.270;2023-01-09T11:18:46;6.30;99.90
22194;DHT22;11262;50.308;9.270;2023-01-09T11:21:34;6.30;99.90
22194;DHT22;11262;50.308;9.270;2023-01-09T11:26:45;6.30;99.90
22194;DHT22;11262;50.308;9.270;2023-01-09T11:31:36;6.40;99.90
22194;DHT22;11262;50.308;9.270;2023-01-09T11:34:03;6.30;99.90
22194;DHT22;11262;50.308;9.270;2023-01-09T11:36:29;6.30;99.90
22194;DHT22;11262;50.308;9.270;2023-01-09T11:38:59;6.30;99.90
22194;DHT22;11262;50.308;9.270;2023-01-09T11:41:31;6.30;99.90
22194;DHT22;11262;50.308;9.270;2023-01-09T11:43:59;6.30;99.90
22194;DHT22;11262;50.308;9.270;2023-01-09T11:46:32;6.30;99.90
22194;DHT22;11262;50.308;9.270;2023-01-09T11:48:58;6.30;99.90
22194;DHT22;11262;50.308;9.270;2023-01-09T11:51:27;6.30;99.90
22194;DHT22;11262;50.308;9.270;2023-01-09T11:56:43;6.40;99.90
22194;DHT22;11262;50.308;9.270;2023-01-09T11:59:11;6.40;99.90
22194;DHT22;11262;50.308;9.270;2023-01-09T12:04:25;6.50;99.90
22194;DHT22;11262;50.308;9.270;2023-01-09T12:10:04;6.60;99.90
22194;DHT22;11262;50.308;9.270;2023-01-09T12:43:26;6.60;99.90
22194;DHT22;11262;50.308;9.270;2023-01-09T12:46:23;6.60;99.90
22194;DHT22;11262;50.308;9.270;2023-01-09T12:55:21;6.50;99.90
22194;DHT22;11262;50.308;9.270;2023-01-09T12:57:26;6.50;99.90
22194;DHT22;11262;50.308;9.270;2023-01-09T13:00:10;6.60;99.90
22194;DHT22;11262;50.308;9.270;2023-01-09T13:02:59;6.60;99.90
22194;DHT22;11262;50.308;9.270;2023-01-09T13:05:44;6.60;99.90
22194;DHT22;11262;50.308;9.270;2023-01-09T13:08:13;6.50;99.90
22194;DHT22;11262;50.308;9.270;2023-01-09T13:10:42;6.50;99.90
22194;DHT22;11262;50.308;9.270;2023-01-09T13:16:26;6.40;99.90
22194;DHT22;11262;50.308;9.270;2023-01-09T13:19:02;6.30;99.90
22194;DHT22;11262;50.308;9.270;2023-01-09T13:21:28;6.30;99.90
22194;DHT22;11262;50.308;9.270;2023-01-09T13:26:26;6.30;99.90
22194;DHT22;11262;50.308;9.270;2023-01-09T13:29:01;6.30;99.90
22194;DHT22;11262;50.308;9.270;2023-01-09T13:34:22;6.30;99.90
22194;DHT22;11262;50.308;9.270;2023-01-09T13:36:53;6.30;99.90
22194;DHT22;11262;50.308;9.270;2023-01-09T13:39:25;6.20;99.90
22194;DHT22;11262;50.308;9.270;2023-01-09T13:42:00;6.20;99.90
22194;DHT22;11262;50.308;9.270;2023-01-09T13:44:47;6.20;99.90
22194;DHT22;11262;50.308;9.270;2023-01-09T13:47:25;6.20;99.90
22194;DHT22;11262;50.308;9.270;2023-01-09T13:55:24;6.20;99.90
22194;DHT22;11262;50.308;9.270;2023-01-09T14:03:23;6.30;99.90
22194;DHT22;11262;50.308;9.270;2023-01-09T14:08:23;6.30;99.90
22194;DHT22;11262;50.308;9.270;2023-01-09T14:16:00;6.30;99.90
22194;DHT22;11262;50.308;9.270;2023-01-09T14:18:29;6.30;99.90
22194;DHT22;11262;50.308;9.270;2023-01-09T14:21:05;6.30;99.90
22194;DHT22;11262;50.308;9.270;2023-01-09T14:24:04;6.30;99.90
22194;DHT22;11262;50.308;9.270;2023-01-09T14:26:48;6.30;99.90
22194;DHT22;11262;50.308;9.270;2023-01-09T14:29:37;6.40;99.90
22194;DHT22;11262;50.308;9.270;2023-01-09T14:37:36;6.30;99.90
22194;DHT22;11262;50.308;9.270;2023-01-09T14:40:05;6.30;99.90
22194;DHT22;11262;50.308;9.270;2023-01-09T14:42:33;6.30;99.90
22194;DHT22;11262;50.308;9.270;2023-01-09T14:45:04;6.30;99.90
22194;DHT22;11262;50.308;9.270;2023-01-09T14:47:38;6.30;99.90
22194;DHT22;11262;50.308;9.270;2023-01-09T14:50:21;6.30;99.90
22194;DHT22;11262;50.308;9.270;2023-01-09T14:55:26;6.30;99.90
22194;DHT22;11262;50.308;9.270;2023-01-09T14:57:54;6.40;99.90
22194;DHT22;11262;50.308;9.270;2023-01-09T15:00:22;6.30;99.90
22194;DHT22;11262;50.308;9.270;2023-01-09T15:02:49;6.30;99.90
22194;DHT22;11262;50.308;9.270;2023-01-09T15:05:20;6.30;99.90
22194;DHT22;11262;50.308;9.270;2023-01-09T15:08:00;6.30;99.90
22194;DHT22;11262;50.308;9.270;2023-01-09T15:10:31;6.30;99.90
22194;DHT22;11262;50.308;9.270;2023-01-09T15:12:59;6.30;99.90
22194;DHT22;11262;50.308;9.270;2023-01-09T15:15:26;6.30;99.90
22194;DHT22;11262;50.308;9.270;2023-01-09T15:18:04;6.30;99.90
22194;DHT22;11262;50.308;9.270;2023-01-09T15:20:32;6.30;99.90
22194;DHT22;11262;50.308;9.270;2023-01-09T15:22:59;6.30;99.90
22194;DHT22;11262;50.308;9.270;2023-01-09T15:27:54;6.20;99.90
22194;DHT22;11262;50.308;9.270;2023-01-09T15:30:33;6.20;99.90
22194;DHT22;11262;50.308;9.270;2023-01-09T15:33:04;6.20;99.90
22194;DHT22;11262;50.308;9.270;2023-01-09T15:35:41;6.20;99.90
22194;DHT22;11262;50.308;9.270;2023-01-09T15:38:12;6.20;99.90
22194;DHT22;11262;50.308;9.270;2023-01-09T15:40:38;6.20;99.90
22194;DHT22;11262;50.308;9.270;2023-01-09T15:43:04;6.20;99.90
22194;DHT22;11262;50.308;9.270;2023-01-09T15:45:38;6.20;99.90
22194;DHT22;11262;50.308;9.270;2023-01-09T15:48:26;6.20;99.90
22194;DHT22;11262;50.308;9.270;2023-01-09T15:50:56;6.20;99.90
22194;DHT22;11262;50.308;9.270;2023-01-09T15:53:24;6.20;99.90
22194;DHT22;11262;50.308;9.270;2023-01-09T15:56:22;6.20;99.90
22194;DHT22;11262;50.308;9.270;2023-01-09T15:58:52;6.10;99.90
22194;DHT22;11262;50.308;9.270;2023-01-09T16:06:31;6.10;99.90
22194;DHT22;11262;50.308;9.270;2023-01-09T16:08:59;6.10;99.90
22194;DHT22;11262;50.308;9.270;2023-01-09T16:11:31;6.10;99.90
22194;DHT22;11262;50.308;9.270;2023-01-09T16:16:41;6.10;99.90
22194;DHT22;11262;50.308;9.270;2023-01-09T16:19:44;6.10;99.90
22194;DHT22;11262;50.308;9.270;2023-01-09T16:22:29;6.10;99.90
22194;DHT22;11262;50.308;9.270;2023-01-09T16:25:01;6.10;99.90
22194;DHT22;11262;50.308;9.270;2023-01-09T16:29:59;6.00;99.90
22194;DHT22;11262;50.308;9.270;2023-01-09T16:32:26;6.00;99.90
22194;DHT22;11262;50.308;9.270;2023-01-09T16:34:59;6.00;99.90
22194;DHT22;11262;50.308;9.270;2023-01-09T16:37:26;6.00;99.90
22194;DHT22;11262;50.308;9.270;2023-01-09T16:42:30;5.90;99.90
22194;DHT22;11262;50.308;9.270;2023-01-09T16:45:14;5.90;99.90
22194;DHT22;11262;50.308;9.270;2023-01-09T16:47:40;5.90;99.90
22194;DHT22;11262;50.308;9.270;2023-01-09T16:50:12;5.90;99.90
22194;DHT22;11262;50.308;9.270;2023-01-09T16:52:37;5.90;99.90
22194;DHT22;11262;50.308;9.270;2023-01-09T16:55:03;5.90;99.90
22194;DHT22;11262;50.308;9.270;2023-01-09T16:57:30;5.90;99.90
22194;DHT22;11262;50.308;9.270;2023-01-09T16:59:56;5.90;99.90
22194;DHT22;11262;50.308;9.270;2023-01-09T17:02:25;5.90;99.90
22194;DHT22;11262;50.308;9.270;2023-01-09T17:04:51;5.90;99.90
22194;DHT22;11262;50.308;9.270;2023-01-09T17:07:18;5.90;99.90
22194;DHT22;11262;50.308;9.270;2023-01-09T17:09:44;5.90;99.90
22194;DHT22;11262;50.308;9.270;2023-01-09T17:12:20;5.90;99.90
22194;DHT22;11262;50.308;9.270;2023-01-09T17:14:47;5.90;99.90
22194;DHT22;11262;50.308;9.270;2023-01-09T17:17:14;5.90;99.90
22194;DHT22;11262;50.308;9.270;2023-01-09T17:19:40;5.90;99.90
22194;DHT22;11262;50.308;9.270;2023-01-09T17:22:06;5.80;99.90
22194;DHT22;11262;50.308;9.270;2023-01-09T17:24:32;5.80;99.90
22194;DHT22;11262;50.308;9.270;2023-01-09T17:27:31;5.80;99.90
22194;DHT22;11262;50.308;9.270;2023-01-09T17:30:16;5.20;99.90
22194;DHT22;11262;50.308;9.270;2023-01-09T17:32:41;4.80;99.90
22194;DHT22;11262;50.308;9.270;2023-01-09T17:35:10;4.40;99.90
22194;DHT22;11262;50.308;9.270;2023-01-09T17:37:36;4.30;99.90
22194;DHT22;11262;50.308;9.270;2023-01-09T17:40:01;4.30;99.90
22194;DHT22;11262;50.308;9.270;2023-01-09T17:42:29;4.20;99.90
22194;DHT22;11262;50.308;9.270;2023-01-09T17:44:54;4.30;99.90
22194;DHT22;11262;50.308;9.270;2023-01-09T17:47:21;4.30;99.90
22194;DHT22;11262;50.308;9.270;2023-01-09T17:49:47;4.30;99.90
22194;DHT22;11262;50.308;9.270;2023-01-09T17:52:13;4.30;99.90
22194;DHT22;11262;50.308;9.270;2023-01-09T17:54:39;4.30;99.90
22194;DHT22;11262;50.308;9.270;2023-01-09T17:57:05;4.30;99.90
22194;DHT22;11262;50.308;9.270;2023-01-09T17:59:32;4.20;99.90
22194;DHT22;11262;50.308;9.270;2023-01-09T18:01:57;4.30;99.90
22194;DHT22;11262;50.308;9.270;2023-01-09T18:04:23;4.30;99.90
22194;DHT22;11262;50.308;9.270;2023-01-09T18:06:48;4.30;99.90
22194;DHT22;11262;50.308;9.270;2023-01-09T18:09:15;4.40;99.90
22194;DHT22;11262;50.308;9.270;2023-01-09T18:11:42;4.40;99.90
22194;DHT22;11262;50.308;9.270;2023-01-09T18:14:09;4.40;99.90
22194;DHT22;11262;50.308;9.270;2023-01-09T18:16:34;4.40;99.90
22194;DHT22;11262;50.308;9.270;2023-01-09T18:19:01;4.40;99.90
22194;DHT22;11262;50.308;9.270;2023-01-09T18:21:28;4.40;99.90
22194;DHT22;11262;50.308;9.270;2023-01-09T18:23:55;4.40;99.90
22194;DHT22;11262;50.308;9.270;2023-01-09T18:26:21;4.50;99.90
22194;DHT22;11262;50.308;9.270;2023-01-09T18:28:53;4.50;99.90
22194;DHT22;11262;50.308;9.270;2023-01-09T18:31:19;4.50;99.90
22194;DHT22;11262;50.308;9.270;2023-01-09T18:33:53;4.50;99.90
22194;DHT22;11262;50.308;9.270;2023-01-09T18:36:21;4.50;99.90
22194;DHT22;11262;50.308;9.270;2023-01-09T18:38:51;4.50;99.90
22194;DHT22;11262;50.308;9.270;2023-01-09T18:41:17;4.50;99.90
22194;DHT22;11262;50.308;9.270;2023-01-09T18:43:46;4.60;99.90
22194;DHT22;11262;50.308;9.270;2023-01-09T18:46:12;4.60;99.90
22194;DHT22;11262;50.308;9.270;2023-01-09T18:48:37;4.60;99.90